sensor_id;sensor_type;location;lat;lon;timestamp;temperature;humidity
16116;DHT22;8162;47.104;15.432;2023-09-07T04:40:48;14.70;84.50
16116;DHT22;8162;47.104;15.432;2023-09-07T04:43:49;14.50;84.60
16116;DHT22;8162;47.104;15.432;2023-09-07T04:46:50;14.50;85.50
16116;DHT22;8162;47.104;15.432;2023-09-07T04:49:52;14.50;85.30
16116;DHT22;8162;47.104;15.432;2023-09-07T04:52:52;14.60;85.30
16116;DHT22;8162;47.104;15.432;2023-09-07T04:55:53;14.60;85.30
16116;DHT22;8162;47.104;15.432;2023-09-07T04:58:54;14.60;85.20
16116;DHT22;8162;47.104;15.432;2023-09-07T05:01:54;14.60;85.00
16116;DHT22;8162;47.104;15.432;2023-09-07T05:04:58;14.60;84.80
16116;DHT22;8162;47.104;15.432;2023-09-07T05:07:59;14.70;84.70
16116;DHT22;8162;47.104;15.432;2023-09-07T05:11:01;14.60;85.40
16116;DHT22;8162;47.104;15.432;2023-09-07T05:14:02;14.60;85.50
16116;DHT22;8162;47.104;15.432;2023-09-07T05:17:03;14.70;85.10
16116;DHT22;8162;47.104;15.432;2023-09-07T05:20:04;14.70;85.30
16116;DHT22;8162;47.104;15.432;2023-09-07T05:23:05;14.70;85.30
16116;DHT22;8162;47.104;15.432;2023-09-07T05:26:07;14.70;85.30
16116;DHT22;8162;47.104;15.432;2023-09-07T05:29:07;14.70;85.50
16116;DHT22;8162;47.104;15.432;2023-09-07T05:32:09;14.70;85.70
16116;DHT22;8162;47.104;15.432;2023-09-07T05:35:10;14.80;86.00
16116;DHT22;8162;47.104;15.432;2023-09-07T05:38:12;14.80;86.10
16116;DHT22;8162;47.104;15.432;2023-09-07T05:41:13;14.80;86.20
16116;DHT22;8162;47.104;15.432;2023-09-07T05:44:14;14.80;86.30
16116;DHT22;8162;47.104;15.432;2023-09-07T05:47:14;14.80;85.90
16116;DHT22;8162;47.104;15.432;2023-09-07T05:50:15;14.90;86.00
16116;DHT22;8162;47.104;15.432;2023-09-07T05:53:18;14.90;86.00
16116;DHT22;8162;47.104;15.432;2023-09-07T05:56:18;14.90;86.90
16116;DHT22;8162;47.104;15.432;2023-09-07T05:59:19;15.00;86.60
16116;DHT22;8162;47.104;15.432;2023-09-07T06:02:20;15.00;86.80
16116;DHT22;8162;47.104;15.432;2023-09-07T06:05:21;15.00;87.30
16116;DHT22;8162;47.104;15.432;2023-09-07T07:26:48;15.50;87.40
16116;DHT22;8162;47.104;15.432;2023-09-07T07:29:50;16.00;88.10
16116;DHT22;8162;47.104;15.432;2023-09-07T10:10:36;16.10;88.50
16116;DHT22;8162;47.104;15.432;2023-09-07T10:13:37;20.30;65.90
16116;DHT22;8162;47.104;15.432;2023-09-07T10:16:42;20.50;64.80
16116;DHT22;8162;47.104;15.432;2023-09-07T10:19:45;20.60;65.10
16116;DHT22;8162;47.104;15.432;2023-09-07T10:23:02;20.70;65.50
16116;DHT22;8162;47.104;15.432;2023-09-07T10:26:04;20.80;64.80
16116;DHT22;8162;47.104;15.432;2023-09-07T10:29:05;20.80;65.20
16116;DHT22;8162;47.104;15.432;2023-09-07T10:32:06;20.90;65.10
16116;DHT22;8162;47.104;15.432;2023-09-07T10:35:19;21.00;65.40
16116;DHT22;8162;47.104;15.432;2023-09-07T10:47:29;21.10;64.00
16116;DHT22;8162;47.104;15.432;2023-09-07T10:50:29;21.50;61.70
16116;DHT22;8162;47.104;15.432;2023-09-07T10:53:32;21.50;62.10
16116;DHT22;8162;47.104;15.432;2023-09-07T10:56:32;21.50;63.50
16116;DHT22;8162;47.104;15.432;2023-09-07T10:59:33;21.70;63.60
16116;DHT22;8162;47.104;15.432;2023-09-07T11:02:34;21.70;63.00
16116;DHT22;8162;47.104;15.432;2023-09-07T11:05:36;21.90;62.60
16116;DHT22;8162;47.104;15.432;2023-09-07T11:08:37;21.90;62.00
16116;DHT22;8162;47.104;15.432;2023-09-07T11:11:38;22.10;59.30
16116;DHT22;8162;47.104;15.432;2023-09-07T11:14:39;22.30;58.90
16116;DHT22;8162;47.104;15.432;2023-09-07T11:17:40;22.30;60.70
16116;DHT22;8162;47.104;15.432;2023-09-07T11:23:43;22.70;61.00
16116;DHT22;8162;47.104;15.432;2023-09-07T11:26:46;22.50;60.40
16116;DHT22;8162;47.104;15.432;2023-09-07T11:29:53;22.60;60.20
16116;DHT22;8162;47.104;15.432;2023-09-07T11:33:04;22.70;57.80
16116;DHT22;8162;47.104;15.432;2023-09-07T11:36:05;22.80;58.50
16116;DHT22;8162;47.104;15.432;2023-09-07T11:39:05;22.80;58.90
16116;DHT22;8162;47.104;15.432;2023-09-07T11:42:16;22.90;57.60
16116;DHT22;8162;47.104;15.432;2023-09-07T11:45:17;23.10;55.50
16116;DHT22;8162;47.104;15.432;2023-09-07T11:48:19;23.30;51.80
16116;DHT22;8162;47.104;15.432;2023-09-07T11:51:20;23.40;52.70
16116;DHT22;8162;47.104;15.432;2023-09-07T11:54:22;23.60;52.70
16116;DHT22;8162;47.104;15.432;2023-09-07T12:00:25;24.00;49.30
16116;DHT22;8162;47.104;15.432;2023-09-07T12:03:26;24.20;52.90
16116;DHT22;8162;47.104;15.432;2023-09-07T12:06:26;24.40;54.30
16116;DHT22;8162;47.104;15.432;2023-09-07T12:24:32;35.00;38.30
16116;DHT22;8162;47.104;15.432;2023-09-07T12:42:40;37.50;34.60
16116;DHT22;8162;47.104;15.432;2023-09-07T12:45:41;39.80;31.50
16116;DHT22;8162;47.104;15.432;2023-09-07T12:48:42;10.90;30.20
16116;DHT22;8162;47.104;15.432;2023-09-07T12:54:47;37.30;32.80
16116;DHT22;8162;47.104;15.432;2023-09-07T12:57:47;36.70;32.00
16116;DHT22;8162;47.104;15.432;2023-09-07T13:00:48;37.10;36.00
16116;DHT22;8162;47.104;15.432;2023-09-07T13:06:52;39.30;33.00
16116;DHT22;8162;47.104;15.432;2023-09-07T13:09:53;40.40;31.60
16116;DHT22;8162;47.104;15.432;2023-09-07T13:12:55;41.40;30.50
16116;DHT22;8162;47.104;15.432;2023-09-07T13:15:56;42.20;28.20
16116;DHT22;8162;47.104;15.432;2023-09-07T13:18:57;42.80;27.80
16116;DHT22;8162;47.104;15.432;2023-09-07T13:21:57;43.70;27.20
16116;DHT22;8162;47.104;15.432;2023-09-07T13:24:59;43.90;26.70
16116;DHT22;8162;47.104;15.432;2023-09-07T13:31:00;44.60;24.70
16116;DHT22;8162;47.104;15.432;2023-09-07T13:34:01;44.20;25.70
16116;DHT22;8162;47.104;15.432;2023-09-07T13:37:01;43.50;26.00
16116;DHT22;8162;47.104;15.432;2023-09-07T14:13:15;44.80;26.20
16116;DHT22;8162;47.104;15.432;2023-09-07T14:16:15;45.00;25.70
16116;DHT22;8162;47.104;15.432;2023-09-07T14:19:16;45.00;26.60
16116;DHT22;8162;47.104;15.432;2023-09-07T14:22:16;44.90;26.20
16116;DHT22;8162;47.104;15.432;2023-09-07T14:25:17;45.00;25.10
16116;DHT22;8162;47.104;15.432;2023-09-07T14:28:18;45.00;26.20
16116;DHT22;8162;47.104;15.432;2023-09-07T14:31:18;45.00;26.70
16116;DHT22;8162;47.104;15.432;2023-09-07T14:34:19;45.10;25.70
16116;DHT22;8162;47.104;15.432;2023-09-07T14:37:20;44.70;24.80
16116;DHT22;8162;47.104;15.432;2023-09-07T14:40:20;44.40;25.40
16116;DHT22;8162;47.104;15.432;2023-09-07T14:43:24;44.10;26.40
16116;DHT22;8162;47.104;15.432;2023-09-07T14:46:25;43.80;26.10
16116;DHT22;8162;47.104;15.432;2023-09-07T14:49:25;43.10;26.20
16116;DHT22;8162;47.104;15.432;2023-09-07T14:52:26;42.70;27.10
16116;DHT22;8162;47.104;15.432;2023-09-07T14:55:27;42.40;27.00
16116;DHT22;8162;47.104;15.432;2023-09-07T14:58:28;42.20;27.50
16116;DHT22;8162;47.104;15.432;2023-09-07T15:01:29;42.00;28.30
16116;DHT22;8162;47.104;15.432;2023-09-07T15:04:30;41.60;28.70
16116;DHT22;8162;47.104;15.432;2023-09-07T15:10:32;41.00;28.00
16116;DHT22;8162;47.104;15.432;2023-09-07T15:13:34;39.70;30.00
16116;DHT22;8162;47.104;15.432;2023-09-07T15:16:35;38.30;33.90
16116;DHT22;8162;47.104;15.432;2023-09-07T15:22:37;35.70;36.60
16116;DHT22;8162;47.104;15.432;2023-09-07T16:20:10;28.50;46.40
16116;DHT22;8162;47.104;15.432;2023-09-07T16:26:12;28.10;48.00
16116;DHT22;8162;47.104;15.432;2023-09-07T16:29:14;27.80;48.60
16116;DHT22;8162;47.104;15.432;2023-09-07T16:32:15;27.50;48.20
16116;DHT22;8162;47.104;15.432;2023-09-07T16:35:18;26.60;47.50
16116;DHT22;8162;47.104;15.432;2023-09-07T16:38:19;27.20;49.30
16116;DHT22;8162;47.104;15.432;2023-09-07T16:41:20;26.90;50.10
16116;DHT22;8162;47.104;15.432;2023-09-07T16:53:25;26.70;50.50
16116;DHT22;8162;47.104;15.432;2023-09-07T16:56:26;25.80;51.60
16116;DHT22;8162;47.104;15.432;2023-09-07T16:59:29;25.60;52.10
16116;DHT22;8162;47.104;15.432;2023-09-07T17:05:34;25.20;53.00
16116;DHT22;8162;47.104;15.432;2023-09-07T17:08:35;25.00;53.60
16116;DHT22;8162;47.104;15.432;2023-09-07T17:11:36;24.70;54.00
16116;DHT22;8162;47.104;15.432;2023-09-07T17:14:39;24.40;55.10
16116;DHT22;8162;47.104;15.432;2023-09-07T17:17:42;24.20;55.50
16116;DHT22;8162;47.104;15.432;2023-09-07T17:20:43;23.90;55.80
16116;DHT22;8162;47.104;15.432;2023-09-07T17:23:44;23.70;56.70
16116;DHT22;8162;47.104;15.432;2023-09-07T17:26:45;23.50;57.40
16116;DHT22;8162;47.104;15.432;2023-09-07T17:32:50;23.10;59.30
16116;DHT22;8162;47.104;15.432;2023-09-07T17:35:57;22.90;59.70
16116;DHT22;8162;47.104;15.432;2023-09-07T17:38:58;22.70;60.60
16116;DHT22;8162;47.104;15.432;2023-09-07T17:41:59;22.50;60.70
16116;DHT22;8162;47.104;15.432;2023-09-07T17:45:02;22.30;61.70
16116;DHT22;8162;47.104;15.432;2023-09-07T17:48:04;22.20;62.00
16116;DHT22;8162;47.104;15.432;2023-09-07T17:51:05;22.00;62.80
16116;DHT22;8162;47.104;15.432;2023-09-07T17:54:06;21.90;63.20
16116;DHT22;8162;47.104;15.432;2023-09-07T17:57:08;21.70;63.60
16116;DHT22;8162;47.104;15.432;2023-09-07T18:00:09;21.50;64.20
16116;DHT22;8162;47.104;15.432;2023-09-07T18:03:13;21.40;64.80
16116;DHT22;8162;47.104;15.432;2023-09-07T18:06:15;21.30;65.20
16116;DHT22;8162;47.104;15.432;2023-09-07T18:09:18;21.10;65.90
16116;DHT22;8162;47.104;15.432;2023-09-07T18:12:19;21.00;66.20
16116;DHT22;8162;47.104;15.432;2023-09-07T18:15:21;20.90;66.70
16116;DHT22;8162;47.104;15.432;2023-09-07T18:18:23;20.80;67.00
16116;DHT22;8162;47.104;15.432;2023-09-07T18:21:24;20.70;67.60
16116;DHT22;8162;47.104;15.432;2023-09-07T18:24:25;20.60;68.00
16116;DHT22;8162;47.104;15.432;2023-09-07T18:27:30;20.50;67.60
16116;DHT22;8162;47.104;15.432;2023-09-07T18:30:33;20.50;68.50
16116;DHT22;8162;47.104;15.432;2023-09-07T18:33:36;20.40;68.30
16116;DHT22;8162;47.104;15.432;2023-09-07T18:36:39;20.30;68.60
16116;DHT22;8162;47.104;15.432;2023-09-07T18:39:39;20.30;68.80
16116;DHT22;8162;47.104;15.432;2023-09-07T18:42:41;20.10;68.80
16116;DHT22;8162;47.104;15.432;2023-09-07T18:45:42;20.00;68.90
16116;DHT22;8162;47.104;15.432;2023-09-07T18:48:43;20.00;68.50
16116;DHT22;8162;47.104;15.432;2023-09-07T18:51:45;19.90;69.00
16116;DHT22;8162;47.104;15.432;2023-09-07T18:54:45;19.90;69.20
16116;DHT22;8162;47.104;15.432;2023-09-07T18:57:46;19.70;69.50
16116;DHT22;8162;47.104;15.432;2023-09-07T19:00:47;19.70;69.90
16116;DHT22;8162;47.104;15.432;2023-09-07T19:03:53;19.70;69.90
16116;DHT22;8162;47.104;15.432;2023-09-07T19:06:55;19.50;70.10
16116;DHT22;8162;47.104;15.432;2023-09-07T19:09:56;19.50;70.30
16116;DHT22;8162;47.104;15.432;2023-09-07T19:12:57;19.50;69.80
16116;DHT22;8162;47.104;15.432;2023-09-07T19:15:58;19.40;70.00
16116;DHT22;8162;47.104;15.432;2023-09-07T19:18:59;19.30;70.20
16116;DHT22;8162;47.104;15.432;2023-09-07T19:22:01;19.30;70.50
16116;DHT22;8162;47.104;15.432;2023-09-07T19:25:02;19.20;70.50
16116;DHT22;8162;47.104;15.432;2023-09-07T19:28:06;19.10;70.50
16116;DHT22;8162;47.104;15.432;2023-09-07T19:31:07;19.10;70.90
16116;DHT22;8162;47.104;15.432;2023-09-07T19:34:09;19.00;71.00
16116;DHT22;8162;47.104;15.432;2023-09-07T19:37:10;18.90;71.10
16116;DHT22;8162;47.104;15.432;2023-09-07T19:40:11;18.90;71.00
16116;DHT22;8162;47.104;15.432;2023-09-07T19:43:12;18.80;70.90
16116;DHT22;8162;47.104;15.432;2023-09-07T19:46:16;18.80;71.30
16116;DHT22;8162;47.104;15.432;2023-09-07T19:49:17;18.80;71.40
16116;DHT22;8162;47.104;15.432;2023-09-07T19:52:20;18.70;71.40
16116;DHT22;8162;47.104;15.432;2023-09-07T19:55:22;18.60;71.40
16116;DHT22;8162;47.104;15.432;2023-09-07T19:58:22;18.60;71.20
16116;DHT22;8162;47.104;15.432;2023-09-07T20:01:24;18.50;71.20
16116;DHT22;8162;47.104;15.432;2023-09-07T20:04:26;18.50;72.20
16116;DHT22;8162;47.104;15.432;2023-09-07T20:07:27;18.40;72.20
16116;DHT22;8162;47.104;15.432;2023-09-07T20:10:30;18.40;72.50
16116;DHT22;8162;47.104;15.432;2023-09-07T20:13:31;18.30;72.70
16116;DHT22;8162;47.104;15.432;2023-09-07T20:16:32;18.30;72.70
16116;DHT22;8162;47.104;15.432;2023-09-07T20:19:45;18.20;72.90
16116;DHT22;8162;47.104;15.432;2023-09-07T20:22:47;18.20;72.90
16116;DHT22;8162;47.104;15.432;2023-09-07T20:25:49;18.10;73.40
16116;DHT22;8162;47.104;15.432;2023-09-07T20:28:52;18.10;73.30
16116;DHT22;8162;47.104;15.432;2023-09-07T20:31:53;18.00;73.50
16116;DHT22;8162;47.104;15.432;2023-09-07T20:34:54;18.00;73.30
16116;DHT22;8162;47.104;15.432;2023-09-07T20:37:57;18.00;73.50
16116;DHT22;8162;47.104;15.432;2023-09-07T20:40:59;18.00;73.70
16116;DHT22;8162;47.104;15.432;2023-09-07T20:44:01;17.90;73.80
16116;DHT22;8162;47.104;15.432;2023-09-07T20:47:02;17.80;74.00
16116;DHT22;8162;47.104;15.432;2023-09-07T20:50:04;17.80;74.30
16116;DHT22;8162;47.104;15.432;2023-09-07T20:53:05;17.80;74.40
16116;DHT22;8162;47.104;15.432;2023-09-07T20:56:06;17.80;74.30
16116;DHT22;8162;47.104;15.432;2023-09-07T20:59:07;17.60;74.60
16116;DHT22;8162;47.104;15.432;2023-09-07T21:02:08;17.60;74.80
16116;DHT22;8162;47.104;15.432;2023-09-07T21:05:10;17.60;74.90
16116;DHT22;8162;47.104;15.432;2023-09-07T21:08:10;17.50;74.80
16116;DHT22;8162;47.104;15.432;2023-09-07T21:11:11;17.50;75.00
16116;DHT22;8162;47.104;15.432;2023-09-07T21:14:12;17.50;75.00
16116;DHT22;8162;47.104;15.432;2023-09-07T21:17:13;17.50;75.20
16116;DHT22;8162;47.104;15.432;2023-09-07T21:20:13;17.50;75.50
16116;DHT22;8162;47.104;15.432;2023-09-07T21:23:14;17.40;75.60
16116;DHT22;8162;47.104;15.432;2023-09-07T21:26:15;17.40;75.50
16116;DHT22;8162;47.104;15.432;2023-09-07T21:29:16;17.30;75.90
16116;DHT22;8162;47.104;15.432;2023-09-07T21:32:16;17.30;75.80
16116;DHT22;8162;47.104;15.432;2023-09-07T21:35:17;17.20;76.40
16116;DHT22;8162;47.104;15.432;2023-09-07T21:38:18;17.20;76.10
16116;DHT22;8162;47.104;15.432;2023-09-07T21:41:19;17.20;76.30
16116;DHT22;8162;47.104;15.432;2023-09-07T21:44:21;17.20;76.40
16116;DHT22;8162;47.104;15.432;2023-09-07T21:47:21;17.20;76.50
16116;DHT22;8162;47.104;15.432;2023-09-07T21:50:22;17.00;76.70
16116;DHT22;8162;47.104;15.432;2023-09-07T21:53:23;17.10;76.90
16116;DHT22;8162;47.104;15.432;2023-09-07T21:56:23;17.00;76.80
16116;DHT22;8162;47.104;15.432;2023-09-07T21:59:24;17.00;77.00
16116;DHT22;8162;47.104;15.432;2023-09-07T22:02:25;17.00;76.70
16116;DHT22;8162;47.104;15.432;2023-09-07T22:05:26;17.00;77.30
16116;DHT22;8162;47.104;15.432;2023-09-07T22:08:26;16.90;77.50
16116;DHT22;8162;47.104;15.432;2023-09-07T22:11:28;16.90;77.50
16116;DHT22;8162;47.104;15.432;2023-09-07T22:14:28;16.90;77.50
16116;DHT22;8162;47.104;15.432;2023-09-07T22:17:29;16.90;77.30
16116;DHT22;8162;47.104;15.432;2023-09-07T22:20:30;16.80;77.40
16116;DHT22;8162;47.104;15.432;2023-09-07T22:23:32;16.80;77.70
16116;DHT22;8162;47.104;15.432;2023-09-07T22:26:32;16.80;78.00
16116;DHT22;8162;47.104;15.432;2023-09-07T23:24:01;16.80;77.80
16116;DHT22;8162;47.104;15.432;2023-09-07T23:27:02;16.30;78.90
16116;DHT22;8162;47.104;15.432;2023-09-07T23:30:06;16.20;79.00
16116;DHT22;8162;47.104;15.432;2023-09-07T23:33:07;16.20;79.60
16116;DHT22;8162;47.104;15.432;2023-09-07T23:36:07;16.20;79.20
16116;DHT22;8162;47.104;15.432;2023-09-07T23:39:10;16.20;79.10
16116;DHT22;8162;47.104;15.432;2023-09-07T23:42:11;16.10;79.30
16116;DHT22;8162;47.104;15.432;2023-09-07T23:45:11;16.10;79.40
16116;DHT22;8162;47.104;15.432;2023-09-07T23:48:12;16.10;79.30
16116;DHT22;8162;47.104;15.432;2023-09-07T23:51:13;16.00;79.00
16116;DHT22;8162;47.104;15.432;2023-09-07T23:54:13;16.00;79.40
16116;DHT22;8162;47.104;15.432;2023-09-07T23:57:14;16.00;79.70
